Time;durP1;ratioP1;P1;durP2;ratioP2;P2;SDS_P1;SDS_P2;PMS_P1;PMS_P2;Temp;Humidity;BMP_temperature;BMP_pressure;BME280_temperature;BME280_humidity;BME280_pressure;Samples;Min_cycle;Max_cycle;Signal;HPM_P1;HPM_P2
2022/08/10 00:01:35;;;;;;;1.02;1.00;;;16.30;99.60;;;;;;5081587;28;20036;-47
2022/08/10 00:04:01;;;;;;;3.38;1.13;;;16.30;99.60;;;;;;5091041;28;20109;-46
2022/08/10 00:06:26;;;;;;;1.30;1.08;;;16.30;99.90;;;;;;5079218;28;20419;-48
2022/08/10 00:08:53;;;;;;;22.77;2.40;;;16.20;99.90;;;;;;5075998;28;20047;-50
2022/08/10 00:11:18;;;;;;;25.13;2.78;;;16.20;99.90;;;;;;5081623;28;20438;-47
2022/08/10 00:13:44;;;;;;;7.20;1.40;;;16.20;99.90;;;;;;5067078;28;20123;-49
2022/08/10 00:16:09;;;;;;;3.22;1.60;;;16.20;99.90;;;;;;5082219;28;20111;-47
2022/08/10 00:18:35;;;;;;;2.17;1.20;;;16.20;99.90;;;;;;5072335;28;20113;-47
2022/08/10 00:21:01;;;;;;;2.22;2.13;;;16.20;99.90;;;;;;5078440;28;20043;-47
2022/08/10 00:23:27;;;;;;;2.45;1.73;;;16.10;99.90;;;;;;5079925;28;20086;-48
2022/08/10 00:25:53;;;;;;;2.65;2.10;;;16.20;99.90;;;;;;5058838;28;20082;-47
2022/08/10 00:28:18;;;;;;;4.00;2.03;;;16.10;99.90;;;;;;5083490;28;20068;-47
2022/08/10 00:30:44;;;;;;;4.18;2.42;;;16.10;99.90;;;;;;5074768;28;20028;-47
2022/08/10 00:33:10;;;;;;;2.38;1.50;;;16.10;99.90;;;;;;5090923;28;20177;-46
2022/08/10 00:35:35;;;;;;;1.95;1.67;;;16.10;99.90;;;;;;5083165;28;20094;-47
2022/08/10 00:38:01;;;;;;;2.17;1.98;;;16.10;99.90;;;;;;5071354;28;20111;-48
2022/08/10 00:40:26;;;;;;;5.32;2.38;;;16.10;99.90;;;;;;5073353;28;20036;-47
2022/08/10 00:42:52;;;;;;;2.20;2.00;;;16.10;99.90;;;;;;5075576;28;20478;-47
2022/08/10 00:45:18;;;;;;;2.30;2.17;;;16.10;99.90;;;;;;5090727;28;20552;-46
2022/08/10 00:47:43;;;;;;;2.00;1.90;;;16.10;99.90;;;;;;5072028;28;20101;-48
2022/08/10 00:50:09;;;;;;;2.75;2.25;;;16.00;99.90;;;;;;5071675;28;20135;-49
2022/08/10 00:52:36;;;;;;;2.42;2.20;;;15.90;99.90;;;;;;5087271;28;20174;-48
2022/08/10 00:55:04;;;;;;;1.83;1.73;;;15.90;99.90;;;;;;5090853;28;20527;-47
2022/08/10 00:57:31;;;;;;;2.53;2.40;;;15.90;99.90;;;;;;5075313;28;20115;-48
2022/08/10 00:59:57;;;;;;;2.42;2.30;;;15.90;99.90;;;;;;5071880;28;20044;-46
2022/08/10 01:02:22;;;;;;;3.05;2.35;;;15.90;99.90;;;;;;5061855;28;20051;-47
2022/08/10 01:04:48;;;;;;;2.13;2.03;;;15.90;99.90;;;;;;5090119;28;20115;-46
2022/08/10 01:07:23;;;;;;;2.80;2.60;;;15.90;99.90;;;;;;5078323;28;20032;-46
2022/08/10 01:10:31;;;;;;;2.70;2.50;;;15.80;99.90;;;;;;5071222;28;20040;-47
2022/08/10 01:13:21;;;;;;;3.03;2.13;;;15.80;99.90;;;;;;5080630;28;20055;-45
2022/08/10 01:16:13;;;;;;;2.25;2.10;;;15.80;99.90;;;;;;5070414;28;20050;-46
2022/08/10 01:18:59;;;;;;;2.85;2.45;;;15.70;99.90;;;;;;5070379;28;20040;-47
2022/08/10 01:21:30;;;;;;;2.80;2.42;;;15.60;99.90;;;;;;5053663;28;20080;-46
2022/08/10 01:24:25;;;;;;;4.68;2.88;;;15.60;99.90;;;;;;5071343;28;20067;-46
2022/08/10 01:27:23;;;;;;;5.78;3.22;;;15.60;99.90;;;;;;5070337;28;20125;-48
2022/08/10 01:30:03;;;;;;;3.42;2.85;;;15.50;99.90;;;;;;5052386;28;20516;-47
2022/08/10 01:32:46;;;;;;;4.00;3.60;;;15.50;99.90;;;;;;5072241;28;20099;-47
2022/08/10 01:35:27;;;;;;;3.55;3.08;;;15.50;99.90;;;;;;5082192;28;20040;-47
2022/08/10 01:38:02;;;;;;;4.05;3.75;;;15.40;99.90;;;;;;5073079;28;20068;-46
2022/08/10 01:40:32;;;;;;;3.80;3.50;;;15.40;99.90;;;;;;5090403;28;20052;-46
2022/08/10 01:43:03;;;;;;;3.90;3.55;;;15.40;99.90;;;;;;5077096;28;20123;-46
2022/08/10 01:45:30;;;;;;;4.68;3.53;;;15.30;99.90;;;;;;5077613;28;20428;-47
2022/08/10 01:51:22;;;;;;;3.65;3.28;;;15.30;99.90;;;;;;5025288;28;20401;-48
2022/08/10 01:53:57;;;;;;;4.88;4.47;;;15.30;99.90;;;;;;5073722;28;20058;-48
2022/08/10 01:56:27;;;;;;;3.17;2.80;;;15.20;99.90;;;;;;5083418;28;20040;-46
2022/08/10 01:58:57;;;;;;;4.40;3.97;;;15.20;99.90;;;;;;5079003;28;20024;-46
2022/08/10 02:01:27;;;;;;;7.10;4.78;;;15.20;99.90;;;;;;5084640;28;20043;-46
2022/08/10 02:03:56;;;;;;;4.88;4.43;;;15.10;99.90;;;;;;5071166;28;20032;-47
2022/08/10 02:06:25;;;;;;;9.63;5.22;;;15.10;99.90;;;;;;5070011;28;20490;-47
2022/08/10 02:08:52;;;;;;;10.27;5.65;;;15.10;99.90;;;;;;5078563;28;20098;-46
2022/08/10 02:11:19;;;;;;;9.07;5.50;;;15.20;99.90;;;;;;5077412;28;20043;-47
2022/08/10 02:13:45;;;;;;;5.82;5.15;;;15.20;99.90;;;;;;5088328;28;20032;-46
2022/08/10 02:16:13;;;;;;;7.60;5.68;;;15.20;99.90;;;;;;5082697;28;20509;-46
2022/08/10 02:18:40;;;;;;;6.38;5.78;;;15.20;99.90;;;;;;5091745;28;20119;-48
2022/08/10 02:21:07;;;;;;;6.53;5.93;;;15.20;99.90;;;;;;5092609;28;20036;-48
2022/08/10 02:23:36;;;;;;;6.47;5.55;;;15.20;99.90;;;;;;5077771;28;20036;-47
2022/08/10 02:26:03;;;;;;;6.45;5.75;;;15.20;99.90;;;;;;5088629;28;20194;-48
2022/08/10 02:28:31;;;;;;;6.93;5.10;;;15.30;99.90;;;;;;5079133;28;20119;-47
2022/08/10 02:31:08;;;;;;;5.93;4.88;;;15.20;99.90;;;;;;5074218;28;20037;-48
2022/08/10 02:33:36;;;;;;;5.43;4.80;;;15.30;99.90;;;;;;5087543;28;20032;-47
2022/08/10 02:36:06;;;;;;;5.72;5.03;;;15.30;99.90;;;;;;5082191;28;20040;-46
2022/08/10 02:38:36;;;;;;;5.45;4.95;;;15.20;99.90;;;;;;5079285;28;20048;-47
2022/08/10 02:41:14;;;;;;;5.80;5.25;;;15.20;99.90;;;;;;5091728;28;20036;-47
2022/08/10 02:43:53;;;;;;;6.60;5.57;;;15.20;99.90;;;;;;5078822;28;20040;-50
2022/08/10 02:46:28;;;;;;;6.20;5.60;;;15.20;99.90;;;;;;5091906;28;20115;-47
2022/08/10 02:49:02;;;;;;;6.40;5.80;;;15.20;99.90;;;;;;5077293;28;20537;-47
2022/08/10 02:51:54;;;;;;;5.80;5.22;;;15.20;99.90;;;;;;5073729;28;20059;-48
2022/08/10 02:54:22;;;;;;;6.53;5.25;;;15.20;99.90;;;;;;5088811;28;20036;-50
2022/08/10 02:57:02;;;;;;;5.20;4.70;;;15.20;99.90;;;;;;5074228;28;20051;-47
2022/08/10 02:59:33;;;;;;;8.25;6.15;;;15.10;99.90;;;;;;5073708;28;20093;-49
2022/08/10 03:02:03;;;;;;;6.15;5.55;;;15.10;99.90;;;;;;5076489;28;20067;-47
2022/08/10 03:04:36;;;;;;;7.65;6.00;;;15.10;99.90;;;;;;5093101;28;20028;-49
2022/08/10 03:07:06;;;;;;;8.02;6.30;;;15.10;99.90;;;;;;5091691;28;20036;-49
2022/08/10 03:09:35;;;;;;;7.50;6.63;;;15.10;99.90;;;;;;5072928;28;20036;-47
2022/08/10 03:12:02;;;;;;;18.20;6.65;;;15.00;99.90;;;;;;5073544;28;20047;-46
2022/08/10 03:14:29;;;;;;;7.93;7.07;;;15.00;99.90;;;;;;5090108;28;20036;-48
2022/08/10 03:16:56;;;;;;;7.95;6.47;;;15.00;99.90;;;;;;5088634;28;20036;-47
2022/08/10 03:19:23;;;;;;;9.50;7.20;;;15.00;99.90;;;;;;5081978;28;20044;-49
2022/08/10 03:21:50;;;;;;;8.20;7.45;;;15.00;99.90;;;;;;5092304;28;20036;-48
2022/08/10 03:24:21;;;;;;;7.15;6.55;;;15.00;99.90;;;;;;5086068;28;20121;-45
2022/08/10 03:26:48;;;;;;;9.43;6.38;;;15.00;99.90;;;;;;5072017;28;20028;-47
2022/08/10 03:29:15;;;;;;;8.73;7.72;;;15.00;99.90;;;;;;5079361;28;20048;-47
2022/08/10 03:31:41;;;;;;;8.85;7.90;;;15.00;99.90;;;;;;5092695;28;20076;-47
2022/08/10 03:34:06;;;;;;;10.25;7.78;;;15.00;99.90;;;;;;5090075;28;20075;-46
2022/08/10 03:36:32;;;;;;;5.95;5.45;;;15.00;99.90;;;;;;5092215;28;20043;-47
2022/08/10 03:38:58;;;;;;;8.32;7.05;;;15.10;99.90;;;;;;5088687;28;20477;-47
2022/08/10 03:41:54;;;;;;;7.03;6.32;;;15.10;99.90;;;;;;5072458;28;20040;-48
2022/08/10 03:44:24;;;;;;;7.97;5.90;;;15.10;99.90;;;;;;5052882;28;20048;-46
2022/08/10 03:46:50;;;;;;;3.63;3.05;;;15.00;99.90;;;;;;5072042;28;20025;-46
2022/08/10 03:49:18;;;;;;;3.35;3.05;;;14.90;99.90;;;;;;5081630;28;20041;-47
2022/08/10 03:51:48;;;;;;;4.00;3.58;;;14.80;99.90;;;;;;5090992;28;20028;-47
2022/08/10 03:54:17;;;;;;;3.50;2.88;;;14.70;99.90;;;;;;5092510;28;20036;-47
2022/08/10 03:56:43;;;;;;;2.25;2.05;;;14.60;99.90;;;;;;5072662;28;20044;-47
2022/08/10 03:59:15;;;;;;;2.08;1.98;;;14.50;99.90;;;;;;5072608;28;20315;-47
2022/08/10 04:01:44;;;;;;;3.08;2.58;;;14.40;99.90;;;;;;5055203;28;20116;-47
2022/08/10 04:04:11;;;;;;;1.95;1.77;;;14.30;99.90;;;;;;5077827;28;20043;-47
2022/08/10 04:06:37;;;;;;;4.50;2.67;;;14.30;99.90;;;;;;5074743;28;20516;-45
2022/08/10 04:09:03;;;;;;;3.72;2.05;;;14.30;99.90;;;;;;5072079;28;20398;-45
2022/08/10 04:11:29;;;;;;;4.80;2.58;;;14.30;99.90;;;;;;5083778;28;20043;-47
2022/08/10 04:13:54;;;;;;;5.90;3.00;;;14.30;99.90;;;;;;5091388;28;20509;-46
2022/08/10 04:16:20;;;;;;;5.15;3.03;;;14.30;99.90;;;;;;5078199;28;20051;-48
2022/08/10 04:18:46;;;;;;;6.53;3.85;;;14.30;99.90;;;;;;5072796;28;20037;-47
2022/08/10 04:21:17;;;;;;;4.88;4.35;;;14.20;99.90;;;;;;5081727;28;20512;-47
2022/08/10 04:23:46;;;;;;;5.03;4.53;;;14.20;99.90;;;;;;5071599;28;20037;-50
2022/08/10 04:26:12;;;;;;;4.72;4.18;;;14.20;99.90;;;;;;5081874;28;20054;-47
2022/08/10 04:28:39;;;;;;;7.38;5.68;;;14.20;99.90;;;;;;5091176;28;20079;-47
2022/08/10 04:31:07;;;;;;;9.13;5.35;;;14.20;99.90;;;;;;5083212;28;20094;-47
2022/08/10 04:33:33;;;;;;;11.07;7.43;;;14.30;99.90;;;;;;5089751;28;20440;-46
2022/08/10 04:36:01;;;;;;;8.77;7.40;;;14.40;99.90;;;;;;5074807;28;20036;-47
2022/08/10 04:38:27;;;;;;;14.27;7.28;;;14.40;99.90;;;;;;5090456;28;20032;-46
2022/08/10 04:40:53;;;;;;;12.13;7.70;;;14.50;99.90;;;;;;5084803;28;20541;-48
2022/08/10 04:43:19;;;;;;;8.90;7.85;;;14.50;99.90;;;;;;5071583;28;20045;-46
2022/08/10 04:45:45;;;;;;;10.18;7.80;;;14.60;99.90;;;;;;5073449;28;20035;-47
2022/08/10 04:48:10;;;;;;;12.57;10.05;;;14.60;99.90;;;;;;5071453;28;20066;-46
2022/08/10 04:50:36;;;;;;;10.40;7.95;;;14.60;99.90;;;;;;5073100;28;20402;-47
2022/08/10 04:53:02;;;;;;;12.27;9.65;;;14.70;99.90;;;;;;5089255;28;20485;-47
2022/08/10 04:55:28;;;;;;;9.82;7.90;;;14.70;99.90;;;;;;5090432;28;20039;-47
2022/08/10 04:57:53;;;;;;;12.65;8.57;;;14.70;99.90;;;;;;5071699;28;20051;-47
2022/08/10 05:00:19;;;;;;;18.60;8.95;;;14.70;99.90;;;;;;5071321;28;20044;-48
2022/08/10 05:02:45;;;;;;;14.02;8.20;;;14.80;99.90;;;;;;5086203;28;20044;-51
2022/08/10 05:05:11;;;;;;;10.38;9.20;;;14.80;99.90;;;;;;5090784;28;20382;-47
2022/08/10 05:07:37;;;;;;;12.25;9.05;;;14.80;99.90;;;;;;5074263;28;20032;-45
2022/08/10 05:10:03;;;;;;;11.00;8.07;;;14.80;99.90;;;;;;5070885;28;20048;-47
2022/08/10 05:12:29;;;;;;;13.27;9.98;;;14.90;99.90;;;;;;5066938;28;20093;-47
2022/08/10 05:14:55;;;;;;;13.40;9.15;;;14.90;99.90;;;;;;5090657;28;20040;-48
2022/08/10 05:17:21;;;;;;;11.68;8.25;;;14.90;99.90;;;;;;5077874;28;20036;-46
2022/08/10 05:19:46;;;;;;;14.25;8.65;;;14.90;99.90;;;;;;5074683;28;20435;-47
2022/08/10 05:22:12;;;;;;;13.13;8.00;;;15.00;99.90;;;;;;5070462;28;20036;-47
2022/08/10 05:24:38;;;;;;;22.58;9.75;;;15.10;99.90;;;;;;5074861;28;20040;-46
2022/08/10 05:27:03;;;;;;;18.25;9.75;;;15.20;99.90;;;;;;5052056;28;20040;-49
2022/08/10 05:29:29;;;;;;;13.65;9.52;;;15.30;99.90;;;;;;5071176;28;20104;-49
2022/08/10 05:31:55;;;;;;;12.45;8.95;;;15.40;99.90;;;;;;5088990;28;20046;-46
2022/08/10 05:34:25;;;;;;;11.38;8.45;;;15.40;99.90;;;;;;5087979;28;20153;-47
2022/08/10 05:36:52;;;;;;;10.95;9.75;;;15.50;99.90;;;;;;5070267;28;20044;-46
2022/08/10 05:39:19;;;;;;;21.52;10.80;;;15.60;99.90;;;;;;5073348;28;20041;-49
2022/08/10 05:41:46;;;;;;;12.93;9.43;;;15.70;99.90;;;;;;5076665;28;20044;-48
2022/08/10 05:44:12;;;;;;;12.13;9.02;;;15.80;99.90;;;;;;5082138;28;20094;-47
2022/08/10 05:46:37;;;;;;;11.07;9.00;;;15.90;99.90;;;;;;5089822;28;20111;-45
2022/08/10 05:49:03;;;;;;;10.70;8.98;;;16.00;99.90;;;;;;5090055;28;20584;-46
2022/08/10 05:51:29;;;;;;;17.08;9.98;;;16.20;99.90;;;;;;5075875;28;20060;-47
2022/08/10 05:53:55;;;;;;;14.45;8.77;;;16.30;99.90;;;;;;5069487;28;20044;-47
2022/08/10 05:56:21;;;;;;;16.52;7.78;;;16.40;99.90;;;;;;5070559;28;20044;-48
2022/08/10 05:58:47;;;;;;;13.02;8.38;;;16.50;99.90;;;;;;5070330;28;20502;-46
2022/08/10 06:01:15;;;;;;;14.32;9.38;;;16.60;99.90;;;;;;5080461;28;20521;-48
2022/08/10 06:03:52;;;;;;;9.68;8.68;;;16.70;99.90;;;;;;5089954;28;20057;-46
2022/08/10 06:06:19;;;;;;;;;;;16.70;99.90;;;;;;5088596;28;20086;-48
2022/08/10 06:08:46;;;;;;;11.95;8.32;;;16.90;99.90;;;;;;5090208;28;19923;-46
2022/08/10 06:11:14;;;;;;;8.85;7.53;;;17.00;99.90;;;;;;5078609;28;20036;-48
2022/08/10 06:16:31;;;;;;;12.38;8.55;;;17.10;99.90;;;;;;5082096;28;20040;-45
2022/08/10 06:18:57;;;;;;;11.70;7.88;;;17.20;99.90;;;;;;5077336;28;20051;-47
2022/08/10 06:21:23;;;;;;;;;;;17.30;99.90;;;;;;5071052;28;20040;-44
2022/08/10 06:23:50;;;;;;;13.07;7.60;;;17.30;99.90;;;;;;5089863;28;20407;-47
2022/08/10 06:26:15;;;;;;;8.10;7.30;;;17.40;99.90;;;;;;5082106;28;20045;-46
2022/08/10 06:28:51;;;;;;;8.77;7.63;;;17.50;99.90;;;;;;5069866;28;20576;-47
2022/08/10 06:31:18;;;;;;;7.07;6.20;;;17.60;99.90;;;;;;5070058;28;20438;-47
2022/08/10 06:33:45;;;;;;;12.57;7.00;;;17.70;99.90;;;;;;5069156;28;20407;-48
2022/08/10 06:36:12;;;;;;;11.63;7.22;;;17.80;99.90;;;;;;5069689;28;20068;-45
2022/08/10 06:38:39;;;;;;;10.18;6.85;;;17.90;99.90;;;;;;5079440;28;20237;-46
2022/08/10 06:41:12;;;;;;;7.38;6.78;;;18.00;99.90;;;;;;5089973;28;20090;-45
2022/08/10 06:43:44;;;;;;;9.38;7.00;;;18.10;99.90;;;;;;5089646;28;20047;-46
2022/08/10 06:46:15;;;;;;;14.45;7.80;;;18.20;99.90;;;;;;5082370;28;20052;-48
2022/08/10 06:48:53;;;;;;;6.38;5.57;;;18.30;99.90;;;;;;5078748;28;20101;-47
2022/08/10 06:51:23;;;;;;;7.43;5.95;;;18.40;99.90;;;;;;5078348;28;20386;-46
2022/08/10 06:53:52;;;;;;;8.63;5.68;;;18.40;99.90;;;;;;5078789;28;20078;-46
2022/08/10 06:56:20;;;;;;;6.32;5.57;;;18.50;99.90;;;;;;5080223;28;20286;-46
2022/08/10 06:58:59;;;;;;;7.22;5.93;;;18.60;99.90;;;;;;5077489;28;20036;-47
2022/08/10 07:01:29;;;;;;;9.35;5.57;;;18.70;99.90;;;;;;5073140;28;20115;-46
2022/08/10 07:04:22;;;;;;;7.82;6.28;;;18.80;99.90;;;;;;5079214;28;20138;-47
2022/08/10 07:06:49;;;;;;;9.45;5.63;;;18.90;99.90;;;;;;5081528;28;20040;-48
2022/08/10 07:09:16;;;;;;;9.50;5.97;;;19.00;99.90;;;;;;5085952;28;20050;-48
2022/08/10 07:11:44;;;;;;;7.40;5.82;;;19.00;99.90;;;;;;5081450;28;20075;-48
2022/08/10 07:14:12;;;;;;;5.95;5.28;;;19.10;99.90;;;;;;5074263;28;20552;-48
2022/08/10 07:16:41;;;;;;;7.43;6.20;;;19.20;99.90;;;;;;5083901;28;20331;-46
2022/08/10 07:19:11;;;;;;;7.40;5.97;;;19.20;99.90;;;;;;5077349;28;20036;-47
2022/08/10 07:21:40;;;;;;;7.90;6.22;;;19.20;99.90;;;;;;5083146;28;20036;-47
2022/08/10 07:24:09;;;;;;;6.63;6.00;;;19.30;99.90;;;;;;5082905;28;20037;-47
2022/08/10 07:26:36;;;;;;;8.52;5.30;;;19.40;99.90;;;;;;5082000;28;20068;-47
2022/08/10 07:29:06;;;;;;;10.18;5.78;;;19.40;99.90;;;;;;5082662;28;20045;-47
2022/08/10 07:31:32;;;;;;;7.25;5.47;;;19.50;99.90;;;;;;5086663;28;20050;-46
2022/08/10 07:34:01;;;;;;;5.97;5.35;;;19.60;99.90;;;;;;5088386;28;20055;-46
2022/08/10 07:36:29;;;;;;;7.85;5.07;;;19.70;99.90;;;;;;5090742;28;20517;-48
2022/08/10 07:38:56;;;;;;;10.02;7.32;;;19.80;99.90;;;;;;5080608;28;20443;-47
2022/08/10 07:41:23;;;;;;;5.65;5.10;;;19.80;99.90;;;;;;5074609;28;20486;-48
2022/08/10 07:43:50;;;;;;;9.15;5.85;;;20.00;99.90;;;;;;5072871;28;20092;-46
2022/08/10 07:46:18;;;;;;;8.75;5.88;;;20.10;99.90;;;;;;5089913;28;20036;-48
2022/08/10 07:48:48;;;;;;;8.25;5.68;;;20.20;99.90;;;;;;5089245;28;20074;-46
2022/08/10 07:51:17;;;;;;;9.60;5.05;;;20.30;99.90;;;;;;5080677;28;20043;-48
2022/08/10 07:53:50;;;;;;;6.95;5.15;;;20.40;99.90;;;;;;5073507;28;20040;-48
2022/08/10 07:56:17;;;;;;;5.10;4.63;;;20.50;99.90;;;;;;5080069;28;20170;-48
2022/08/10 07:59:01;;;;;;;5.80;5.22;;;20.60;99.90;;;;;;5072004;28;20486;-48
2022/08/10 08:01:30;;;;;;;5.47;4.80;;;20.70;99.90;;;;;;5069950;28;20456;-48
2022/08/10 08:03:57;;;;;;;6.75;5.00;;;20.80;99.90;;;;;;5078636;28;20039;-49
2022/08/10 08:06:24;;;;;;;6.53;5.38;;;21.00;99.90;;;;;;5090932;28;20028;-48
2022/08/10 08:08:50;;;;;;;7.85;4.97;;;21.10;99.90;;;;;;5087431;28;20035;-48
2022/08/10 08:11:18;;;;;;;6.07;4.72;;;21.20;99.90;;;;;;5075448;28;20032;-49
2022/08/10 08:13:45;;;;;;;8.98;4.35;;;21.30;99.90;;;;;;5071499;28;20143;-49
2022/08/10 08:16:12;;;;;;;9.55;4.47;;;21.40;99.90;;;;;;5084869;28;20032;-48
2022/08/10 08:18:39;;;;;;;4.75;3.90;;;21.40;99.90;;;;;;5084760;28;20047;-48
2022/08/10 08:21:05;;;;;;;8.48;4.50;;;21.50;99.90;;;;;;5075736;28;20037;-49
2022/08/10 08:23:31;;;;;;;;;;;21.60;99.90;;;;;;5086588;28;20035;-48
2022/08/10 08:25:57;;;;;;;3.95;3.40;;;21.70;99.90;;;;;;5072868;28;19920;-47
2022/08/10 08:28:25;;;;;;;4.57;3.35;;;21.80;99.90;;;;;;5081399;28;20563;-49
2022/08/10 08:30:52;;;;;;;12.95;4.13;;;21.90;99.90;;;;;;5074113;28;20028;-48
2022/08/10 08:33:19;;;;;;;16.33;3.60;;;22.00;99.90;;;;;;5070567;28;20040;-48
2022/08/10 08:35:44;;;;;;;6.40;3.38;;;22.10;99.90;;;;;;5070641;28;20040;-48
2022/08/10 08:38:11;;;;;;;;;;;22.10;99.90;;;;;;5064145;28;20546;-48
2022/08/10 08:40:39;;;;;;;10.82;3.22;;;22.20;99.90;;;;;;5070586;28;20340;-46
2022/08/10 08:43:38;;;;;;;8.13;2.40;;;22.30;99.80;;;;;;5062929;28;20502;-48
2022/08/10 08:46:27;;;;;;;5.43;2.35;;;22.40;99.60;;;;;;5075246;28;20029;-46
2022/08/10 08:48:58;;;;;;;11.38;2.85;;;22.50;99.30;;;;;;5071132;28;20055;-48
2022/08/10 08:52:08;;;;;;;8.93;2.25;;;22.70;99.20;;;;;;5088099;28;20036;-48
2022/08/10 08:55:01;;;;;;;4.00;2.55;;;22.70;98.70;;;;;;5047991;28;20421;-48
2022/08/10 08:57:41;;;;;;;5.13;1.70;;;22.90;98.80;;;;;;5083279;28;20377;-49
2022/08/10 09:00:08;;;;;;;4.50;2.05;;;23.00;98.60;;;;;;5080325;28;20563;-47
2022/08/10 09:03:12;;;;;;;4.35;2.00;;;23.10;98.60;;;;;;5070835;28;20124;-48
2022/08/10 09:05:59;;;;;;;3.53;2.10;;;23.20;98.30;;;;;;5070700;28;20036;-48
2022/08/10 09:08:48;;;;;;;7.40;1.67;;;23.40;98.10;;;;;;5090360;28;20516;-49
2022/08/10 09:11:44;;;;;;;7.68;1.77;;;23.40;97.90;;;;;;5090827;28;20042;-48
2022/08/10 09:14:35;;;;;;;6.80;1.45;;;23.50;97.30;;;;;;5090062;28;20062;-48
2022/08/10 09:17:26;;;;;;;3.92;1.50;;;23.70;97.20;;;;;;5073386;28;20171;-48
2022/08/10 09:20:14;;;;;;;7.05;1.52;;;23.80;96.90;;;;;;5071860;28;20036;-48
2022/08/10 09:23:00;;;;;;;4.25;1.65;;;23.90;96.70;;;;;;5090739;28;20044;-46
2022/08/10 09:25:33;;;;;;;4.28;1.40;;;24.00;96.10;;;;;;5084726;28;20448;-48
2022/08/10 09:28:07;;;;;;;6.97;1.65;;;24.10;96.50;;;;;;5070384;28;20040;-48
2022/08/10 09:30:48;;;;;;;6.10;1.20;;;24.20;96.10;;;;;;5081081;28;20043;-48
2022/08/10 09:33:23;;;;;;;5.47;1.08;;;24.30;95.80;;;;;;5070353;28;20044;-49
2022/08/10 09:36:06;;;;;;;4.25;0.90;;;24.40;95.80;;;;;;5076452;28;20036;-49
2022/08/10 09:38:55;;;;;;;8.02;1.33;;;24.60;96.10;;;;;;5072471;28;20115;-49
2022/08/10 09:41:43;;;;;;;7.28;0.90;;;24.70;94.90;;;;;;5080477;28;20422;-49
2022/08/10 09:44:29;;;;;;;4.95;0.82;;;24.80;94.70;;;;;;5090188;28;20061;-50
2022/08/10 09:47:43;;;;;;;4.45;0.80;;;24.90;94.30;;;;;;5074922;28;20041;-48
2022/08/10 09:50:30;;;;;;;3.35;0.95;;;25.00;94.40;;;;;;5076531;28;20508;-49
2022/08/10 09:53:14;;;;;;;3.05;0.73;;;25.10;93.40;;;;;;5070063;28;20048;-50
2022/08/10 09:55:55;;;;;;;1.50;0.40;;;25.20;93.60;;;;;;5072784;28;20036;-49
2022/08/10 09:58:39;;;;;;;3.80;0.80;;;25.20;92.50;;;;;;5090375;28;20036;-48
2022/08/10 10:01:21;;;;;;;10.20;0.90;;;25.30;92.60;;;;;;5086880;28;20040;-49
2022/08/10 10:03:59;;;;;;;4.13;0.50;;;25.40;91.90;;;;;;5089908;28;20036;-48
2022/08/10 10:06:37;;;;;;;1.02;0.68;;;25.50;92.40;;;;;;5082822;28;20040;-49
2022/08/10 10:09:02;;;;;;;9.23;0.90;;;25.60;91.80;;;;;;5070034;28;20043;-49
2022/08/10 10:11:42;;;;;;;2.20;0.60;;;25.70;91.70;;;;;;5071266;28;20449;-51
2022/08/10 10:14:19;;;;;;;2.78;0.47;;;25.80;91.10;;;;;;5069679;28;20082;-49
2022/08/10 10:17:19;;;;;;;8.65;0.40;;;25.90;88.80;;;;;;5073331;28;20182;-51
2022/08/10 10:19:59;;;;;;;2.33;0.52;;;25.90;87.10;;;;;;5080373;28;20045;-50
2022/08/10 10:23:06;;;;;;;2.05;0.30;;;26.00;87.70;;;;;;5079013;28;20046;-47
2022/08/10 10:25:38;;;;;;;4.13;0.45;;;26.10;84.90;;;;;;5074372;28;20044;-50
2022/08/10 10:28:33;;;;;;;3.85;0.43;;;26.10;86.30;;;;;;5088577;28;20041;-49
2022/08/10 10:31:17;;;;;;;1.98;0.40;;;26.20;86.60;;;;;;5061050;28;20059;-53
2022/08/10 10:34:01;;;;;;;0.73;0.45;;;26.30;86.60;;;;;;5072998;28;20094;-51
2022/08/10 10:36:29;;;;;;;7.55;0.90;;;26.40;86.80;;;;;;5079444;28;20024;-53
2022/08/10 10:38:57;;;;;;;1.73;0.25;;;26.50;84.40;;;;;;5075333;28;20045;-55
2022/08/10 10:41:43;;;;;;;1.48;0.30;;;26.50;82.70;;;;;;5075842;28;20043;-53
2022/08/10 10:44:45;;;;;;;4.82;0.90;;;26.50;80.40;;;;;;5073782;28;20086;-51
2022/08/10 10:47:41;;;;;;;2.35;0.30;;;26.60;81.30;;;;;;4991579;28;20052;-50
2022/08/10 10:50:23;;;;;;;1.38;0.30;;;26.60;81.20;;;;;;4989780;28;20138;-53
2022/08/10 10:53:27;;;;;;;2.05;0.32;;;26.60;80.30;;;;;;4991564;28;20050;-52
2022/08/10 10:56:17;;;;;;;2.75;0.30;;;26.70;80.30;;;;;;4979379;28;20165;-48
2022/08/10 10:58:51;;;;;;;4.78;0.73;;;26.70;80.50;;;;;;4991723;28;20141;-53
2022/08/10 11:01:37;;;;;;;4.47;1.05;;;26.80;80.90;;;;;;4990604;28;20046;-49
2022/08/10 11:04:25;;;;;;;2.95;0.52;;;26.90;79.30;;;;;;4990569;28;20563;-51
2022/08/10 11:07:22;;;;;;;1.27;0.30;;;27.00;77.90;;;;;;4981880;28;20060;-54
2022/08/10 11:09:58;;;;;;;3.47;0.40;;;27.10;77.40;;;;;;4991164;28;20133;-54
2022/08/10 11:12:32;;;;;;;40.40;1.75;;;27.10;78.00;;;;;;4990335;28;20050;-54
2022/08/10 11:15:05;;;;;;;1.48;0.30;;;27.10;76.30;;;;;;4990065;28;20467;-54
2022/08/10 11:17:55;;;;;;;3.10;0.35;;;27.20;76.30;;;;;;4990489;28;20065;-51
2022/08/10 11:20:42;;;;;;;6.00;0.57;;;27.20;75.30;;;;;;4989216;28;20178;-53
2022/08/10 11:23:10;;;;;;;5.47;1.10;;;27.20;75.80;;;;;;5007745;28;20065;-53
2022/08/10 11:25:41;;;;;;;0.52;0.30;;;27.30;78.10;;;;;;5072561;28;20036;-53
2022/08/10 11:28:20;;;;;;;3.83;0.30;;;27.30;75.90;;;;;;5072548;28;20036;-51
2022/08/10 11:31:05;;;;;;;1.65;0.40;;;27.40;75.70;;;;;;5082778;28;20044;-53
2022/08/10 11:33:34;;;;;;;20.00;0.90;;;27.50;74.80;;;;;;5080313;28;20055;-53
2022/08/10 11:36:24;;;;;;;7.82;0.60;;;27.50;74.50;;;;;;5078930;28;20048;-53
2022/08/10 11:39:31;;;;;;;1.83;0.20;;;27.60;74.60;;;;;;5074642;28;20036;-53
2022/08/10 11:42:05;;;;;;;2.40;0.30;;;27.60;72.60;;;;;;5061759;28;20056;-52
2022/08/10 11:44:35;;;;;;;2.30;0.25;;;27.70;74.60;;;;;;5083033;28;20317;-53
2022/08/10 11:47:16;;;;;;;0.63;0.30;;;27.80;74.50;;;;;;5071338;28;20054;-53
2022/08/10 11:49:56;;;;;;;2.38;0.40;;;27.90;73.00;;;;;;5089468;28;20046;-53
2022/08/10 11:52:33;;;;;;;2.97;0.40;;;28.00;73.50;;;;;;5079767;28;20040;-53
2022/08/10 11:55:09;;;;;;;1.60;0.50;;;28.00;72.40;;;;;;5071929;28;20040;-53
2022/08/10 11:57:36;;;;;;;9.95;1.00;;;28.00;71.80;;;;;;5091695;28;20715;-53
2022/08/10 12:00:06;;;;;;;5.40;1.45;;;28.10;71.80;;;;;;5091953;28;20036;-53
2022/08/10 12:02:37;;;;;;;4.25;0.32;;;28.10;71.60;;;;;;5090299;28;20040;-53
2022/08/10 12:05:10;;;;;;;2.20;0.40;;;28.10;72.40;;;;;;5073663;28;20066;-52
2022/08/10 12:07:42;;;;;;;2.65;0.30;;;28.20;70.10;;;;;;5072940;28;20040;-50
2022/08/10 12:10:09;;;;;;;3.35;0.68;;;28.20;70.90;;;;;;5071721;28;20040;-53
2022/08/10 12:12:44;;;;;;;3.55;0.40;;;28.30;71.20;;;;;;5089567;28;20105;-53
2022/08/10 12:15:15;;;;;;;4.57;0.63;;;28.30;69.70;;;;;;5091248;28;20085;-51
2022/08/10 12:17:50;;;;;;;2.38;0.30;;;28.30;70.10;;;;;;5072815;28;20501;-52
2022/08/10 12:20:30;;;;;;;2.72;0.30;;;28.40;70.20;;;;;;5083172;28;20447;-53
2022/08/10 12:23:06;;;;;;;3.85;0.63;;;28.40;69.40;;;;;;5085707;28;20039;-54
2022/08/10 12:25:52;;;;;;;1.92;0.50;;;28.40;68.80;;;;;;5079071;28;20072;-54
2022/08/10 12:28:23;;;;;;;2.08;0.30;;;28.40;68.20;;;;;;5071432;28;20178;-54
2022/08/10 12:30:55;;;;;;;3.20;0.30;;;28.40;67.70;;;;;;5084620;28;20043;-54
2022/08/10 12:33:25;;;;;;;3.05;0.30;;;28.40;68.70;;;;;;5089429;28;20511;-51
2022/08/10 12:36:02;;;;;;;4.90;0.40;;;28.40;68.50;;;;;;5078530;28;20041;-51
2022/08/10 12:39:00;;;;;;;2.47;0.20;;;28.50;67.50;;;;;;5071260;28;20119;-54
2022/08/10 12:41:32;;;;;;;2.33;0.40;;;28.50;65.00;;;;;;5071193;28;20094;-54
2022/08/10 12:44:05;;;;;;;3.15;0.40;;;28.50;67.20;;;;;;5073672;28;20054;-54
2022/08/10 12:46:43;;;;;;;1.15;0.20;;;28.60;65.30;;;;;;5090791;28;20554;-51
2022/08/10 12:49:25;;;;;;;26.13;1.40;;;28.60;65.00;;;;;;5087715;28;20040;-53
2022/08/10 12:52:12;;;;;;;3.92;0.55;;;28.70;65.50;;;;;;5071271;28;20433;-49
2022/08/10 12:54:40;;;;;;;40.03;1.73;;;28.80;64.60;;;;;;5077497;28;20056;-48
2022/08/10 12:57:14;;;;;;;2.45;0.30;;;28.90;65.00;;;;;;5070391;28;20509;-50
2022/08/10 12:59:47;;;;;;;2.00;0.20;;;28.90;64.20;;;;;;5058553;28;20102;-54
2022/08/10 13:02:20;;;;;;;2.92;0.20;;;29.00;63.50;;;;;;5091368;28;20040;-53
2022/08/10 13:04:50;;;;;;;2.67;0.20;;;29.10;63.50;;;;;;5082512;28;20111;-54
2022/08/10 13:07:24;;;;;;;3.25;0.35;;;29.00;62.80;;;;;;5070601;28;20401;-52
2022/08/10 13:09:49;;;;;;;11.30;0.50;;;29.00;62.50;;;;;;5076625;28;20036;-54
2022/08/10 13:12:18;;;;;;;1.92;0.28;;;29.00;62.90;;;;;;5090033;28;20180;-48
2022/08/10 13:14:58;;;;;;;3.85;0.40;;;29.10;63.00;;;;;;5085298;28;20025;-48
2022/08/10 13:17:31;;;;;;;1.98;0.30;;;29.10;61.70;;;;;;5070427;28;20044;-48
2022/08/10 13:20:02;;;;;;;2.00;0.40;;;29.20;62.30;;;;;;5075684;28;20084;-48
2022/08/10 13:22:31;;;;;;;4.03;0.20;;;29.20;61.60;;;;;;5080667;28;20043;-49